Terminal Aerodrome Forecast
Issued by NWS

Home | Current Version | Previous Version | Graphics & Text | Print | Product List | Glossary On
Versions: 1 2 3 4 5 6 7 8 9 10 11 12 13 14 15
000
FTUS43 KICT 272322
TAFHUT
TAF
KHUT 272322Z 2800/2824 12010KT P6SM FEW050 SCT150
     FM280100 19007KT P6SM VCTS SCT035CB BKN050
     FM280600 VRB05KT P6SM SCT009
      TEMPO 2809/2812 3SM BR BKN009
     FM281500 28008KT P6SM SCT040=

USA.gov is the U.S. government's official web portal to all federal, state and local government web resources and services.